createdAt,value
2023-04-10T00:04:39.440Z,6.89
2023-04-10T00:09:44.956Z,6.90
2023-04-10T00:14:48.922Z,6.87
2023-04-10T00:19:52.795Z,6.88
2023-04-10T00:24:58.243Z,6.93
2023-04-10T00:30:03.810Z,6.89
2023-04-10T00:35:09.684Z,6.88
2023-04-10T00:40:15.445Z,6.84
2023-04-10T00:45:19.787Z,6.79
2023-04-10T00:50:24.141Z,6.70
2023-04-10T00:55:30.037Z,6.76
2023-04-10T01:00:34.432Z,6.72
2023-04-10T01:05:44.730Z,6.73
2023-04-10T01:10:57.021Z,6.79
2023-04-10T01:16:07.189Z,6.78
2023-04-10T01:21:13.518Z,6.72
2023-04-10T01:26:22.481Z,6.66
2023-04-10T01:31:35.793Z,6.74
2023-04-10T01:36:46.332Z,6.67
2023-04-10T01:41:52.876Z,6.71
2023-04-10T01:47:06.464Z,6.73
2023-04-10T01:52:11.133Z,6.72
2023-04-10T01:57:16.556Z,6.68
2023-04-10T02:02:33.318Z,6.65
2023-04-10T02:07:41.713Z,6.66
2023-04-10T02:12:50.643Z,6.59
2023-04-10T02:17:57.623Z,6.58
2023-04-10T02:23:05.549Z,6.54
2023-04-10T02:28:09.734Z,6.50
2023-04-10T02:33:15.844Z,6.44
2023-04-10T02:38:20.073Z,6.53
2023-04-10T02:43:24.188Z,6.57
2023-04-10T02:48:30.099Z,6.63
2023-04-10T02:53:38.334Z,6.56
2023-04-10T02:58:46.172Z,6.58
2023-04-10T03:03:52.864Z,6.66
2023-04-10T03:09:10.748Z,6.65
2023-04-10T03:14:15.797Z,6.62
2023-04-10T03:19:21.522Z,6.70
2023-04-10T03:24:25.760Z,6.70
2023-04-10T03:29:29.758Z,6.81
2023-04-10T03:34:36.592Z,6.76
2023-04-10T03:39:40.921Z,6.85
2023-04-10T03:44:45.018Z,6.86
2023-04-10T03:49:50.629Z,6.83
2023-04-10T03:54:55.019Z,6.87
2023-04-10T04:00:05.832Z,6.87
2023-04-10T04:05:25.758Z,6.91
2023-04-10T04:10:48.502Z,6.87
2023-04-10T04:16:01.074Z,6.86
2023-04-10T04:21:23.098Z,6.96
2023-04-10T04:26:49.740Z,6.99
2023-04-10T04:32:10.862Z,6.98
2023-04-10T04:37:37.095Z,7.09
2023-04-10T04:42:59.662Z,7.09
2023-04-10T04:48:22.340Z,6.98
2023-04-10T04:53:46.364Z,6.97
2023-04-10T04:59:10.744Z,7.05
2023-04-10T05:04:53.320Z,7.13
2023-04-10T05:10:17.500Z,7.12
2023-04-10T05:15:57.702Z,7.14
2023-04-10T05:21:28.568Z,7.10
2023-04-10T05:26:43.926Z,7.10
2023-04-10T05:32:08.223Z,7.15
2023-04-10T05:37:51.006Z,7.15
2023-04-10T05:43:19.776Z,7.21
2023-04-10T05:48:37.495Z,7.30
2023-04-10T05:54:12.836Z,7.30
2023-04-10T05:59:47.658Z,7.30
2023-04-10T06:05:04.264Z,7.33
2023-04-10T06:10:11.596Z,7.40
2023-04-10T06:15:17.796Z,7.46
2023-04-10T06:20:22.000Z,7.57
2023-04-10T06:25:27.894Z,7.51
2023-04-10T06:30:37.344Z,7.60
2023-04-10T06:35:43.974Z,7.63
2023-04-10T06:40:48.997Z,7.82
2023-04-10T06:45:54.256Z,7.91
2023-04-10T06:51:00.484Z,7.90
2023-04-10T06:56:05.129Z,7.97
2023-04-10T07:01:11.205Z,7.94
2023-04-10T07:06:15.499Z,8.24
2023-04-10T07:11:19.459Z,8.31
2023-04-10T07:16:25.207Z,8.46
2023-04-10T07:21:29.295Z,8.38
2023-04-10T07:26:33.832Z,8.43
2023-04-10T07:31:39.326Z,8.48
2023-04-10T07:36:45.946Z,8.61
2023-04-10T07:41:50.676Z,8.62
2023-04-10T07:46:56.150Z,8.85
2023-04-10T07:52:00.435Z,8.96
2023-04-10T07:57:04.935Z,8.99
2023-04-10T08:02:10.753Z,9.03
2023-04-10T08:07:14.751Z,9.23
2023-04-10T08:12:18.874Z,9.67
2023-04-10T08:17:24.469Z,10.09
2023-04-10T08:22:28.473Z,10.29
2023-04-10T08:27:32.861Z,10.32
2023-04-10T08:32:39.751Z,10.67
2023-04-10T08:37:49.719Z,10.88
2023-04-10T08:42:58.318Z,10.96
2023-04-10T08:48:06.579Z,10.69
2023-04-10T08:53:13.573Z,10.84
2023-04-10T08:58:17.585Z,10.92
2023-04-10T09:03:24.589Z,10.96
2023-04-10T09:08:29.826Z,10.82
2023-04-10T09:13:38.335Z,10.97
2023-04-10T09:18:49.444Z,11.20
2023-04-10T09:24:01.797Z,11.14
2023-04-10T09:29:11.056Z,11.24
2023-04-10T09:34:18.551Z,11.22
2023-04-10T09:39:23.084Z,11.46
2023-04-10T09:44:31.866Z,11.41
2023-04-10T09:49:46.052Z,11.71
2023-04-10T09:54:50.482Z,11.99
2023-04-10T09:59:55.593Z,11.85
2023-04-10T10:05:01.814Z,12.26
2023-04-10T10:10:09.088Z,12.58
2023-04-10T10:15:18.198Z,12.39
2023-04-10T10:20:25.054Z,12.47
2023-04-10T10:25:31.135Z,12.69
2023-04-10T10:30:35.924Z,12.32
2023-04-10T10:35:41.950Z,12.60
2023-04-10T10:40:51.257Z,12.93
2023-04-10T10:46:00.648Z,13.14
2023-04-10T10:51:06.741Z,12.98
2023-04-10T10:56:36.613Z,13.03
2023-04-10T11:02:01.038Z,13.03
2023-04-10T11:07:06.672Z,13.35
2023-04-10T11:12:10.796Z,13.86
2023-04-10T11:17:35.224Z,14.48
2023-04-10T11:23:08.374Z,14.50
2023-04-10T11:28:32.729Z,14.36
2023-04-10T11:33:37.288Z,14.60
2023-04-10T11:38:42.723Z,14.67
2023-04-10T11:43:46.785Z,14.90
2023-04-10T11:48:54.580Z,14.72
2023-04-10T11:54:10.640Z,15.02
2023-04-10T11:59:16.215Z,14.98
2023-04-10T12:04:22.164Z,15.29
2023-04-10T12:09:27.918Z,14.99
2023-04-10T12:14:33.222Z,15.32
2023-04-10T12:19:37.762Z,15.86
2023-04-10T12:24:44.657Z,16.44
2023-04-10T12:29:49.390Z,15.77
2023-04-10T12:34:53.969Z,15.13
2023-04-10T12:40:08.547Z,14.96
2023-04-10T12:45:14.789Z,15.44
2023-04-10T12:50:21.728Z,16.47
2023-04-10T12:55:29.057Z,17.15
2023-04-10T13:00:33.437Z,16.72
2023-04-10T13:05:37.546Z,16.10
2023-04-10T13:10:43.841Z,15.92
2023-04-10T13:15:49.052Z,15.44
2023-04-10T13:20:53.322Z,15.49
2023-04-10T13:25:59.548Z,15.79
2023-04-10T13:31:03.729Z,16.66
2023-04-10T13:36:08.578Z,16.08
2023-04-10T13:41:14.024Z,15.95
2023-04-10T13:46:18.543Z,15.35
2023-04-10T13:51:23.052Z,15.04
2023-04-10T13:56:28.355Z,14.73
2023-04-10T14:01:32.773Z,14.43
2023-04-10T14:06:37.049Z,14.36
2023-04-10T14:11:42.697Z,14.24
2023-04-10T14:16:46.870Z,15.25
2023-04-10T14:21:50.937Z,16.16
2023-04-10T14:26:58.426Z,16.70
2023-04-10T14:32:02.966Z,17.21
2023-04-10T14:37:07.400Z,17.14
2023-04-10T14:42:13.032Z,17.59
2023-04-10T14:47:16.981Z,17.78
2023-04-10T14:52:21.451Z,17.97
2023-04-10T14:57:26.768Z,17.81
2023-04-10T15:02:31.372Z,17.82
2023-04-10T15:07:35.632Z,17.76
2023-04-10T15:12:42.606Z,17.61
2023-04-10T15:17:46.798Z,17.72
2023-04-10T15:22:51.156Z,17.24
2023-04-10T15:27:57.575Z,16.98
2023-04-10T15:33:02.247Z,16.91
2023-04-10T15:38:06.721Z,16.73
2023-04-10T15:43:15.289Z,16.62
2023-04-10T15:48:22.573Z,16.30
2023-04-10T15:53:27.624Z,15.96
2023-04-10T15:58:33.107Z,15.52
2023-04-10T16:03:37.221Z,15.31
2023-04-10T16:08:41.593Z,14.93
2023-04-10T16:13:47.317Z,14.81
2023-04-10T16:18:51.990Z,14.55
2023-04-10T16:23:56.287Z,14.56
2023-04-10T16:29:01.997Z,14.57
2023-04-10T16:34:06.139Z,14.41
2023-04-10T16:39:10.216Z,14.09
2023-04-10T16:44:15.679Z,13.66
2023-04-10T16:49:19.793Z,13.33
2023-04-10T16:54:24.367Z,13.05
2023-04-10T16:59:29.988Z,12.97
2023-04-10T17:04:34.079Z,12.71
2023-04-10T17:09:38.149Z,12.39
2023-04-10T17:14:43.721Z,12.24
2023-04-10T17:19:48.334Z,12.12
2023-04-10T17:24:52.644Z,11.96
2023-04-10T17:29:58.295Z,11.74
2023-04-10T17:35:03.190Z,11.53
2023-04-10T17:40:08.991Z,11.25
2023-04-10T17:45:14.689Z,11.12
2023-04-10T17:50:19.040Z,11.14
2023-04-10T17:55:23.570Z,11.22
2023-04-10T18:00:29.435Z,11.25
2023-04-10T18:05:34.718Z,11.11
2023-04-10T18:10:38.636Z,11.24
2023-04-10T18:15:44.118Z,11.25
2023-04-10T18:20:48.556Z,11.26
2023-04-10T18:25:55.995Z,11.32
2023-04-10T18:31:02.063Z,11.28
2023-04-10T18:36:06.785Z,11.29
2023-04-10T18:41:10.881Z,11.22
2023-04-10T18:46:16.544Z,11.13
2023-04-10T18:51:20.760Z,10.99
2023-04-10T18:56:25.018Z,10.94
2023-04-10T19:01:30.704Z,10.88
2023-04-10T19:06:36.898Z,10.81
2023-04-10T19:11:42.758Z,10.77
2023-04-10T19:16:48.281Z,10.63
2023-04-10T19:21:52.422Z,10.53
2023-04-10T19:26:58.613Z,10.40
2023-04-10T19:32:04.245Z,10.27
2023-04-10T19:37:08.402Z,10.17
2023-04-10T19:42:12.294Z,10.04
2023-04-10T19:47:18.210Z,9.96
2023-04-10T19:52:22.464Z,9.77
2023-04-10T19:57:26.642Z,9.54
2023-04-10T20:02:32.529Z,9.42
2023-04-10T20:07:37.390Z,9.51
2023-04-10T20:12:41.523Z,9.60
2023-04-10T20:17:47.007Z,9.65
2023-04-10T20:22:51.284Z,9.64
2023-04-10T20:27:55.180Z,9.60
2023-04-10T20:33:00.923Z,9.55
2023-04-10T20:38:04.859Z,9.46
2023-04-10T20:43:12.083Z,9.33
2023-04-10T20:48:17.369Z,9.13
2023-04-10T20:53:21.429Z,9.09
2023-04-10T20:58:26.250Z,8.78
2023-04-10T21:03:32.638Z,8.68
2023-04-10T21:08:37.316Z,8.27
2023-04-10T21:13:41.558Z,8.02
2023-04-10T21:18:47.517Z,7.82
2023-04-10T21:23:51.615Z,7.78
2023-04-10T21:28:55.951Z,7.74
2023-04-10T21:34:01.358Z,7.63
2023-04-10T21:39:09.038Z,7.59
2023-04-10T21:44:13.242Z,7.43
2023-04-10T21:49:18.657Z,7.45
2023-04-10T21:54:22.748Z,7.43
2023-04-10T21:59:27.488Z,7.37
2023-04-10T22:04:33.220Z,7.27
2023-04-10T22:09:38.524Z,7.18
2023-04-10T22:14:42.708Z,7.13
2023-04-10T22:19:48.399Z,6.98
2023-04-10T22:24:52.508Z,6.79
2023-04-10T22:30:03.158Z,6.62
2023-04-10T22:35:10.236Z,6.53
2023-04-10T22:40:14.152Z,6.62
2023-04-10T22:45:18.254Z,6.62
2023-04-10T22:50:23.900Z,6.57
2023-04-10T22:55:27.920Z,6.45
2023-04-10T23:00:33.501Z,6.46
2023-04-10T23:05:39.504Z,6.38
2023-04-10T23:10:43.418Z,6.43
2023-04-10T23:15:50.160Z,6.37
2023-04-10T23:20:55.433Z,6.37
2023-04-10T23:25:59.896Z,6.35
2023-04-10T23:31:04.146Z,6.38
2023-04-10T23:36:10.463Z,6.39
2023-04-10T23:41:14.609Z,6.31
2023-04-10T23:46:18.782Z,6.21
2023-04-10T23:51:24.521Z,5.96
2023-04-10T23:56:29.374Z,5.92
